createdAt,value
2018-11-27T00:04:46.076Z,101315.52
2018-11-27T00:09:49.119Z,101324.64
2018-11-27T00:14:52.189Z,101335.92
2018-11-27T00:19:55.306Z,101339.78
2018-11-27T00:24:58.405Z,101350.21
2018-11-27T00:30:01.487Z,101352.38
2018-11-27T00:35:06.286Z,101347.67
2018-11-27T00:40:16.803Z,101363.77
2018-11-27T00:45:20.999Z,101360.79
2018-11-27T00:50:24.314Z,101370.78
2018-11-27T00:55:27.365Z,101377.69
2018-11-27T01:00:30.420Z,101376.83
2018-11-27T01:05:33.596Z,101373.79
2018-11-27T01:10:36.646Z,101382.42
2018-11-27T01:15:39.755Z,101373.34
2018-11-27T01:20:42.816Z,101377.67
2018-11-27T01:25:45.848Z,101379.81
2018-11-27T01:30:48.921Z,101388.46
2018-11-27T01:35:51.961Z,101389.31
2018-11-27T01:40:54.988Z,101392.35
2018-11-27T01:45:58.030Z,101388.90
2018-11-27T01:51:01.069Z,101398.83
2018-11-27T01:56:04.200Z,101400.55
2018-11-27T02:01:07.314Z,101408.33
2018-11-27T02:06:10.372Z,101409.14
2018-11-27T02:11:13.446Z,101406.09
2018-11-27T02:16:16.505Z,101405.63
2018-11-27T02:21:19.551Z,101406.92
2018-11-27T02:26:22.632Z,101409.05
2018-11-27T02:31:25.718Z,101404.59
2018-11-27T02:36:28.769Z,101399.83
2018-11-27T02:41:31.815Z,101391.56
2018-11-27T02:46:34.861Z,101403.54
2018-11-27T02:51:37.900Z,101401.78
2018-11-27T02:56:40.988Z,101416.06
2018-11-27T03:01:44.024Z,101414.79
2018-11-27T03:06:47.092Z,101411.23
2018-11-27T03:11:50.157Z,101417.28
2018-11-27T03:16:53.217Z,101393.05
2018-11-27T03:21:56.291Z,101421.10
2018-11-27T03:26:59.364Z,101428.84
2018-11-27T03:32:02.461Z,101427.41
2018-11-27T03:37:05.553Z,101425.16
2018-11-27T03:42:08.621Z,101432.50
2018-11-27T03:47:11.668Z,101441.13
2018-11-27T03:52:14.724Z,101446.62
2018-11-27T03:57:17.760Z,101447.94
2018-11-27T04:02:20.809Z,101453.47
2018-11-27T04:07:23.869Z,101456.19
2018-11-27T04:12:26.896Z,101459.95
2018-11-27T04:17:30.202Z,101454.31
2018-11-27T04:28:10.934Z,101456.92
2018-11-27T04:33:14.072Z,101468.09
2018-11-27T04:38:17.109Z,101481.86
2018-11-27T04:43:20.145Z,101487.33
2018-11-27T04:48:23.154Z,101486.94
2018-11-27T04:53:26.408Z,101477.96
2018-11-27T04:58:29.535Z,101482.30
2018-11-27T05:03:32.549Z,101483.66
2018-11-27T05:08:35.611Z,101482.27
2018-11-27T05:13:38.697Z,101480.96
2018-11-27T05:18:41.763Z,101487.94
2018-11-27T05:23:44.833Z,101490.83
2018-11-27T05:28:48.693Z,101503.05
2018-11-27T05:33:51.786Z,101509.95
2018-11-27T05:38:54.896Z,101506.98
2018-11-27T05:43:58.097Z,101503.94
2018-11-27T05:49:01.330Z,101520.77
2018-11-27T05:54:04.484Z,101526.67
2018-11-27T05:59:07.550Z,101533.98
2018-11-27T06:04:10.606Z,101535.41
2018-11-27T06:14:52.097Z,101544.71
2018-11-27T06:19:55.152Z,101555.19
2018-11-27T06:24:58.219Z,101566.39
2018-11-27T06:30:01.301Z,101571.80
2018-11-27T06:35:04.896Z,101580.86
2018-11-27T06:40:17.964Z,101590.45
2018-11-27T06:45:21.459Z,101597.41
2018-11-27T06:50:24.618Z,101600.77
2018-11-27T06:55:27.678Z,101605.52
2018-11-27T07:00:30.840Z,101611.69
2018-11-27T07:05:33.869Z,101632.91
2018-11-27T07:10:38.637Z,101628.30
2018-11-27T07:15:41.728Z,101638.59
2018-11-27T07:20:44.829Z,101647.61
2018-11-27T07:25:47.890Z,101650.53
2018-11-27T07:30:50.962Z,101654.02
2018-11-27T07:35:54.013Z,101655.70
2018-11-27T07:40:57.088Z,101654.37
2018-11-27T07:46:00.245Z,101665.47
2018-11-27T07:51:03.461Z,101675.15
2018-11-27T07:56:06.519Z,101674.41
2018-11-27T08:01:09.620Z,101687.14
2018-11-27T08:06:12.653Z,101695.50
2018-11-27T08:11:15.717Z,101694.20
2018-11-27T08:16:18.779Z,101698.21
2018-11-27T08:21:21.866Z,101700.64
2018-11-27T08:26:24.932Z,101709.98
2018-11-27T08:31:28.046Z,101716.56
2018-11-27T08:36:31.136Z,101726.83
2018-11-27T08:41:40.433Z,101729.09
2018-11-27T08:46:37.301Z,101733.94
2018-11-27T08:51:40.413Z,101747.36
2018-11-27T08:56:43.471Z,101746.14
2018-11-27T09:01:46.560Z,101745.37
2018-11-27T09:06:49.641Z,101755.89
2018-11-27T09:11:52.729Z,101768.08
2018-11-27T09:16:55.776Z,101768.73
2018-11-27T09:21:58.841Z,101765.64
2018-11-27T09:27:01.941Z,101771.22
2018-11-27T09:32:05.845Z,101768.59
2018-11-27T09:37:08.896Z,101775.45
2018-11-27T09:42:11.983Z,101778.16
2018-11-27T09:47:15.104Z,101778.04
2018-11-27T09:52:18.191Z,101776.09
2018-11-27T09:57:21.284Z,101784.94
2018-11-27T10:02:24.359Z,101793.03
2018-11-27T10:07:27.885Z,101785.90
2018-11-27T10:12:30.550Z,101795.02
2018-11-27T10:17:33.686Z,101787.91
2018-11-27T10:22:36.827Z,101791.27
2018-11-27T10:27:40.309Z,101788.27
2018-11-27T10:32:43.445Z,101778.47
2018-11-27T10:37:46.576Z,101770.42
2018-11-27T10:42:49.791Z,101769.40
2018-11-27T10:47:54.506Z,101773.06
2018-11-27T10:52:57.565Z,101754.55
2018-11-27T10:58:00.708Z,101767.86
2018-11-27T11:03:29.536Z,101769.73
2018-11-27T11:08:32.643Z,101767.48
2018-11-27T11:13:35.730Z,101766.08
2018-11-27T11:18:38.793Z,101764.52
2018-11-27T11:23:41.891Z,101771.30
2018-11-27T11:28:44.978Z,101769.66
2018-11-27T11:33:48.073Z,101773.67
2018-11-27T11:38:51.092Z,101781.73
2018-11-27T11:43:54.137Z,101779.91
2018-11-27T11:49:01.787Z,101778.68
2018-11-27T11:54:00.324Z,101772.73
2018-11-27T11:59:03.462Z,101768.56
2018-11-27T12:04:06.587Z,101770.23
2018-11-27T12:09:09.836Z,101760.31
2018-11-27T12:14:12.916Z,101760.80
2018-11-27T12:19:16.034Z,101759.47
2018-11-27T12:24:19.157Z,101762.65
2018-11-27T12:29:22.228Z,101761.14
2018-11-27T12:34:25.289Z,101762.85
2018-11-27T12:39:28.392Z,101765.61
2018-11-27T12:44:31.570Z,101772.76
2018-11-27T12:49:34.709Z,101780.53
2018-11-27T12:54:37.771Z,101786.31
2018-11-27T12:59:40.867Z,101781.67
2018-11-27T13:04:43.957Z,101779.09
2018-11-27T13:09:47.059Z,101782.20
2018-11-27T13:14:50.129Z,101774.82
2018-11-27T13:19:53.217Z,101772.72
2018-11-27T13:24:56.295Z,101770.51
2018-11-27T13:29:59.437Z,101769.33
2018-11-27T13:35:02.520Z,101777.61
2018-11-27T13:40:07.818Z,101778.19
2018-11-27T13:45:13.552Z,101776.11
2018-11-27T13:50:17.237Z,101769.62
2018-11-27T13:55:21.557Z,101767.74
2018-11-27T14:00:24.651Z,101775.90
2018-11-27T14:05:27.732Z,101783.94
2018-11-27T14:10:30.873Z,101778.77
2018-11-27T14:15:34.008Z,101782.80
2018-11-27T14:20:37.128Z,101795.28
2018-11-27T14:25:40.225Z,101806.49
2018-11-27T14:30:43.346Z,101801.81
2018-11-27T14:35:46.433Z,101816.75
2018-11-27T14:40:49.465Z,101827.63
2018-11-27T14:45:52.536Z,101823.50
2018-11-27T14:50:56.641Z,101834.75
2018-11-27T14:55:59.681Z,101832.64
2018-11-27T15:01:02.850Z,101826.50
2018-11-27T15:06:05.988Z,101818.65
2018-11-27T15:11:12.687Z,101831.55
2018-11-27T15:16:12.281Z,101830.13
2018-11-27T15:21:15.393Z,101827.86
2018-11-27T15:26:18.465Z,101830.80
2018-11-27T15:31:21.656Z,101838.44
2018-11-27T15:36:24.756Z,101835.30
2018-11-27T15:41:27.991Z,101840.63
2018-11-27T15:46:31.112Z,101843.91
2018-11-27T15:51:34.223Z,101848.52
2018-11-27T15:56:37.348Z,101838.41
2018-11-27T16:01:40.456Z,101848.80
2018-11-27T16:06:43.541Z,101865.18
2018-11-27T16:11:46.691Z,101868.09
2018-11-27T16:16:49.853Z,101866.29
2018-11-27T16:21:52.965Z,101872.70
2018-11-27T16:26:56.013Z,101873.95
2018-11-27T16:31:59.124Z,101862.67
2018-11-27T16:37:02.247Z,101866.66
2018-11-27T16:42:05.910Z,101856.59
2018-11-27T16:47:09.057Z,101854.34
2018-11-27T16:52:12.137Z,101853.92
2018-11-27T16:57:17.572Z,101856.41
2018-11-27T17:02:22.491Z,101855.43
2018-11-27T17:07:27.637Z,101860.25
2018-11-27T17:12:30.893Z,101862.97
2018-11-27T17:17:34.025Z,101859.28
2018-11-27T17:22:37.243Z,101869.95
2018-11-27T17:27:40.371Z,101889.86
2018-11-27T17:32:43.463Z,101885.00
2018-11-27T17:37:46.559Z,101889.88
2018-11-27T17:42:49.664Z,101889.75
2018-11-27T17:47:52.676Z,101889.20
2018-11-27T17:52:55.817Z,101891.73
2018-11-27T17:57:58.953Z,101891.09
2018-11-27T18:03:06.757Z,101904.03
2018-11-27T18:08:09.798Z,101923.12
2018-11-27T18:13:12.859Z,101926.84
2018-11-27T18:18:15.896Z,101925.89
2018-11-27T18:23:18.897Z,101921.81
2018-11-27T18:28:22.079Z,101924.50
2018-11-27T18:33:25.187Z,101917.59
2018-11-27T18:38:28.256Z,101917.53
2018-11-27T18:43:31.360Z,101923.68
2018-11-27T18:48:34.423Z,101922.01
2018-11-27T18:53:37.493Z,101929.13
2018-11-27T18:58:40.547Z,101937.11
2018-11-27T19:03:43.606Z,101933.62
2018-11-27T19:08:46.657Z,101932.23
2018-11-27T19:13:49.741Z,101933.28
2018-11-27T19:18:52.792Z,101930.11
2018-11-27T19:23:55.864Z,101932.84
2018-11-27T19:28:59.042Z,101937.78
2018-11-27T19:34:02.237Z,101937.66
2018-11-27T19:39:08.329Z,101938.13
2018-11-27T19:44:11.495Z,101926.08
2018-11-27T19:49:14.664Z,101936.37
2018-11-27T19:54:17.756Z,101935.55
2018-11-27T19:59:20.961Z,101945.68
2018-11-27T20:04:24.095Z,101943.92
2018-11-27T20:09:27.177Z,101946.88
2018-11-27T20:14:30.280Z,101959.55
2018-11-27T20:19:33.355Z,101982.92
2018-11-27T20:24:36.429Z,101983.52
2018-11-27T20:29:39.507Z,101977.11
2018-11-27T20:34:42.764Z,101971.81
2018-11-27T20:39:47.456Z,101985.30
2018-11-27T20:44:50.605Z,101987.00
2018-11-27T20:49:53.804Z,101982.42
2018-11-27T20:54:56.894Z,101990.97
2018-11-27T20:59:59.993Z,101984.16
2018-11-27T21:05:03.168Z,101983.84
2018-11-27T21:15:46.263Z,101978.34
2018-11-27T21:20:49.428Z,101971.56
2018-11-27T21:25:56.388Z,101978.06
2018-11-27T21:30:55.681Z,101981.05
2018-11-27T21:35:58.725Z,101984.39
2018-11-27T21:41:01.813Z,101989.17
2018-11-27T21:46:05.590Z,101985.23
2018-11-27T21:51:08.653Z,101989.92
2018-11-27T21:56:11.748Z,101984.39
2018-11-27T22:01:14.860Z,101978.35
2018-11-27T22:06:17.914Z,101979.77
2018-11-27T22:11:20.985Z,101989.00
2018-11-27T22:16:24.052Z,101997.55
2018-11-27T22:21:27.141Z,101990.83
2018-11-27T22:26:30.245Z,101984.90
2018-11-27T22:31:33.438Z,101981.33
2018-11-27T22:36:36.459Z,101983.84
2018-11-27T22:41:39.516Z,101993.61
2018-11-27T22:46:42.540Z,101982.20
2018-11-27T22:51:45.758Z,101993.98
2018-11-27T22:56:48.809Z,101994.17
2018-11-27T23:01:51.896Z,102004.78
2018-11-27T23:06:54.933Z,101996.98
2018-11-27T23:11:58.065Z,101987.56
2018-11-27T23:17:01.112Z,101981.56
2018-11-27T23:22:04.286Z,101964.48
2018-11-27T23:27:07.366Z,101976.59
2018-11-27T23:32:10.437Z,101969.97
2018-11-27T23:37:13.466Z,101969.57
2018-11-27T23:42:16.512Z,101971.96
2018-11-27T23:47:19.545Z,101966.95
2018-11-27T23:52:22.557Z,101966.30
2018-11-27T23:57:25.579Z,101965.74
